Time;durP1;ratioP1;P1;durP2;ratioP2;P2;SDS_P1;SDS_P2;PMS_P1;PMS_P2;Temp;Humidity;BMP_temperature;BMP_pressure;BME280_temperature;BME280_humidity;BME280_pressure;Samples;Min_cycle;Max_cycle;Signal;HPM_P1;HPM_P2
2024/04/04 00:04:03;;;;;;;5.25;1.75;;;;;;;;;;10404956;28;20021;-53
2024/04/04 00:09:04;;;;;;;2.92;1.83;;;;;;;;;;10403990;28;20029;-58
2024/04/04 00:14:06;;;;;;;3.47;1.80;;;;;;;;;;10394170;28;20018;-58
2024/04/04 00:19:07;;;;;;;2.45;1.92;;;;;;;;;;10397697;28;20053;-53
2024/04/04 00:24:08;;;;;;;1.60;1.50;;;;;;;;;;10401633;28;20417;-53
2024/04/04 00:29:09;;;;;;;1.52;1.38;;;;;;;;;;10403049;28;20033;-51
2024/04/04 00:34:09;;;;;;;2.28;1.55;;;;;;;;;;10404268;28;20025;-51
2024/04/04 00:39:10;;;;;;;2.22;1.65;;;;;;;;;;10398628;28;20025;-53
2024/04/04 00:44:10;;;;;;;2.83;1.70;;;;;;;;;;10392529;28;20030;-53
2024/04/04 00:49:11;;;;;;;3.05;1.85;;;;;;;;;;10392467;28;20605;-53
2024/04/04 00:54:12;;;;;;;1.70;1.58;;;;;;;;;;10400699;28;20159;-51
2024/04/04 00:59:13;;;;;;;6.88;1.85;;;;;;;;;;10404321;28;20038;-51
2024/04/04 01:04:13;;;;;;;3.30;1.73;;;;;;;;;;10393727;28;20392;-53
2024/04/04 01:09:15;;;;;;;1.92;1.73;;;;;;;;;;10391908;28;20034;-52
2024/04/04 01:14:16;;;;;;;3.28;1.60;;;;;;;;;;10395595;28;20394;-49
2024/04/04 01:19:17;;;;;;;3.00;1.65;;;;;;;;;;10399657;28;20028;-53
2024/04/04 01:24:18;;;;;;;3.20;1.77;;;;;;;;;;10401670;28;20498;-52
2024/04/04 01:29:18;;;;;;;1.90;1.60;;;;;;;;;;10407738;28;20578;-53
2024/04/04 01:34:19;;;;;;;3.58;1.88;;;;;;;;;;10409351;28;20030;-52
2024/04/04 01:39:19;;;;;;;1.52;1.33;;;;;;;;;;10402375;28;20029;-50
2024/04/04 01:44:21;;;;;;;2.55;1.60;;;;;;;;;;10400593;28;20017;-51
2024/04/04 01:49:21;;;;;;;2.28;1.63;;;;;;;;;;10384365;28;20466;-51
2024/04/04 01:54:22;;;;;;;1.92;1.52;;;;;;;;;;10399688;28;20021;-52
2024/04/04 01:59:25;;;;;;;3.10;1.77;;;;;;;;;;10409784;28;20111;-52
2024/04/04 02:04:26;;;;;;;8.65;2.03;;;;;;;;;;10409449;28;20056;-52
2024/04/04 02:09:27;;;;;;;1.63;1.52;;;;;;;;;;10394393;28;20028;-52
2024/04/04 02:14:28;;;;;;;1.73;1.40;;;;;;;;;;10400133;28;20107;-52
2024/04/04 02:19:29;;;;;;;4.75;1.70;;;;;;;;;;10399998;28;20528;-51
2024/04/04 02:24:29;;;;;;;1.63;1.30;;;;;;;;;;10390515;28;20405;-49
2024/04/04 02:29:30;;;;;;;3.13;1.55;;;;;;;;;;10400904;28;20107;-50
2024/04/04 02:34:30;;;;;;;1.45;1.35;;;;;;;;;;10403587;28;20370;-50
2024/04/04 02:39:32;;;;;;;1.98;1.45;;;;;;;;;;10405824;28;20080;-52
2024/04/04 02:44:35;;;;;;;1.65;1.40;;;;;;;;;;10404306;28;20025;-51
2024/04/04 02:49:35;;;;;;;2.08;1.35;;;;;;;;;;10407755;28;20033;-52
2024/04/04 02:54:37;;;;;;;1.42;1.17;;;;;;;;;;10406342;28;20045;-51
2024/04/04 02:59:37;;;;;;;1.45;1.35;;;;;;;;;;10396866;28;20406;-51
2024/04/04 03:04:39;;;;;;;1.40;1.30;;;;;;;;;;10395365;28;20036;-53
2024/04/04 03:09:39;;;;;;;1.40;1.30;;;;;;;;;;10375165;28;20025;-53
2024/04/04 03:14:40;;;;;;;1.88;1.50;;;;;;;;;;10402924;28;20029;-50
2024/04/04 03:19:40;;;;;;;1.88;1.40;;;;;;;;;;10392432;28;20500;-52
2024/04/04 03:24:41;;;;;;;1.60;1.30;;;;;;;;;;10393693;28;20490;-53
2024/04/04 03:29:42;;;;;;;2.15;1.60;;;;;;;;;;10391537;28;20501;-52
2024/04/04 03:34:42;;;;;;;1.88;1.67;;;;;;;;;;10392556;28;20030;-49
2024/04/04 03:39:47;;;;;;;1.42;1.33;;;;;;;;;;10404591;28;20721;-53
2024/04/04 03:44:51;;;;;;;3.60;1.40;;;;;;;;;;10405637;28;20358;-52
2024/04/04 03:49:52;;;;;;;3.97;1.50;;;;;;;;;;10403424;28;20087;-53
2024/04/04 03:54:52;;;;;;;2.63;1.40;;;;;;;;;;10403734;28;20108;-54
2024/04/04 03:59:53;;;;;;;1.70;1.60;;;;;;;;;;10403809;28;20036;-52
2024/04/04 04:04:54;;;;;;;0.98;0.98;;;;;;;;;;10401566;28;20029;-53
2024/04/04 04:09:54;;;;;;;2.13;1.40;;;;;;;;;;10403026;28;20037;-54
2024/04/04 04:14:55;;;;;;;1.42;1.25;;;;;;;;;;10394238;28;20366;-52
2024/04/04 04:19:56;;;;;;;1.30;1.20;;;;;;;;;;10402624;28;20512;-51
2024/04/04 04:24:56;;;;;;;2.28;1.30;;;;;;;;;;10401191;28;20371;-52
2024/04/04 04:29:57;;;;;;;6.15;1.88;;;;;;;;;;10392813;28;20037;-51
2024/04/04 04:34:57;;;;;;;2.38;1.60;;;;;;;;;;10395609;28;20037;-53
2024/04/04 04:39:58;;;;;;;2.30;1.30;;;;;;;;;;10372527;28;20052;-53
2024/04/04 04:44:59;;;;;;;3.03;1.30;;;;;;;;;;10404047;28;20040;-54
2024/04/04 04:49:59;;;;;;;2.40;1.50;;;;;;;;;;10394088;28;20065;-53
2024/04/04 04:55:00;;;;;;;2.97;1.52;;;;;;;;;;10402918;28;20593;-52
2024/04/04 05:00:01;;;;;;;1.23;1.13;;;;;;;;;;10403237;28;20508;-55
2024/04/04 05:05:15;;;;;;;1.85;1.50;;;;;;;;;;10399961;28;20409;-52
2024/04/04 05:10:16;;;;;;;1.95;1.20;;;;;;;;;;10410895;28;20087;-50
2024/04/04 05:15:17;;;;;;;1.52;1.40;;;;;;;;;;10412355;28;20029;-52
2024/04/04 05:20:17;;;;;;;2.05;1.35;;;;;;;;;;10411709;28;20461;-56
2024/04/04 05:25:18;;;;;;;3.28;1.30;;;;;;;;;;10386017;28;20527;-53
2024/04/04 05:30:18;;;;;;;2.33;1.50;;;;;;;;;;10389954;28;20021;-54
2024/04/04 05:35:19;;;;;;;1.33;1.23;;;;;;;;;;10391770;28;20025;-53
2024/04/04 05:40:20;;;;;;;2.25;1.45;;;;;;;;;;10403587;28;20037;-50
2024/04/04 05:45:20;;;;;;;2.65;1.45;;;;;;;;;;10396593;28;20444;-50
2024/04/04 05:50:21;;;;;;;6.68;2.00;;;;;;;;;;10400303;28;20038;-52
2024/04/04 05:55:21;;;;;;;3.72;2.30;;;;;;;;;;10389687;28;20185;-49
2024/04/04 06:00:22;;;;;;;5.25;2.15;;;;;;;;;;10407360;28;20037;-50
2024/04/04 06:05:22;;;;;;;18.13;3.17;;;;;;;;;;10386455;28;20033;-50
2024/04/04 06:10:23;;;;;;;9.38;3.08;;;;;;;;;;10396456;28;20061;-52
2024/04/04 06:15:24;;;;;;;12.82;3.38;;;;;;;;;;10393146;28;20037;-52
2024/04/04 06:20:24;;;;;;;8.95;3.42;;;;;;;;;;10407325;28;20345;-52
2024/04/04 06:25:25;;;;;;;6.57;3.08;;;;;;;;;;10393214;28;20440;-50
2024/04/04 06:30:26;;;;;;;9.18;2.75;;;;;;;;;;10396507;28;20028;-54
2024/04/04 06:35:26;;;;;;;10.20;2.70;;;;;;;;;;10399618;28;20020;-52
2024/04/04 06:40:29;;;;;;;5.38;2.35;;;;;;;;;;10379999;28;20401;-59
2024/04/04 06:45:30;;;;;;;5.53;2.47;;;;;;;;;;10394855;28;20041;-56
2024/04/04 06:50:31;;;;;;;8.25;2.70;;;;;;;;;;10396495;28;20099;-53
2024/04/04 06:55:31;;;;;;;13.55;2.67;;;;;;;;;;10383525;28;20022;-52
2024/04/04 07:00:32;;;;;;;3.40;2.10;;;;;;;;;;10394876;28;20034;-53
2024/04/04 07:05:32;;;;;;;5.97;2.33;;;;;;;;;;10397494;28;20216;-52
2024/04/04 07:10:33;;;;;;;6.07;2.65;;;;;;;;;;10387155;28;20358;-50
2024/04/04 07:15:33;;;;;;;8.75;2.70;;;;;;;;;;10398233;28;20026;-51
2024/04/04 07:20:35;;;;;;;8.77;3.20;;;;;;;;;;10406507;28;20021;-51
2024/04/04 07:25:35;;;;;;;14.13;2.72;;;;;;;;;;10405867;28;20057;-57
2024/04/04 07:30:36;;;;;;;4.50;2.47;;;;;;;;;;10401146;28;20029;-52
2024/04/04 07:35:38;;;;;;;5.35;2.33;;;;;;;;;;10406012;28;20026;-54
2024/04/04 07:40:40;;;;;;;9.07;2.50;;;;;;;;;;10387977;28;20120;-52
2024/04/04 07:45:43;;;;;;;9.13;2.80;;;;;;;;;;10400561;28;20543;-51
2024/04/04 07:50:46;;;;;;;6.10;2.40;;;;;;;;;;10396890;28;20024;-55
2024/04/04 07:55:46;;;;;;;7.65;2.53;;;;;;;;;;10400227;28;20041;-57
2024/04/04 08:00:47;;;;;;;12.88;2.75;;;;;;;;;;10405425;28;20477;-52
2024/04/04 08:05:48;;;;;;;6.05;2.40;;;;;;;;;;10404840;28;20823;-55
2024/04/04 08:10:49;;;;;;;6.30;2.30;;;;;;;;;;10399331;28;20029;-50
2024/04/04 08:15:51;;;;;;;4.65;2.50;;;;;;;;;;10378582;28;20054;-59
2024/04/04 08:20:51;;;;;;;4.90;2.50;;;;;;;;;;10378689;28;20025;-54
2024/04/04 08:25:57;;;;;;;5.70;2.30;;;;;;;;;;10381249;28;20037;-61
2024/04/04 08:31:03;;;;;;;3.70;2.10;;;;;;;;;;10402814;28;20049;-55
2024/04/04 08:36:04;;;;;;;5.28;2.53;;;;;;;;;;10388507;28;20529;-51
2024/04/04 12:12:21;;;;;;;7.63;2.00;;;;;;;;;;10599508;27;20665;-60
2024/04/04 12:17:23;;;;;;;13.90;3.03;;;;;;;;;;10593953;28;20067;-60
2024/04/04 12:22:23;;;;;;;11.18;2.50;;;;;;;;;;10579017;28;20023;-61
2024/04/04 12:27:24;;;;;;;6.13;1.98;;;;;;;;;;10597418;27;20019;-60
2024/04/04 12:32:24;;;;;;;3.65;1.75;;;;;;;;;;10587766;28;20027;-59
2024/04/04 12:37:26;;;;;;;4.82;1.67;;;;;;;;;;10603240;27;20027;-59
2024/04/04 12:42:27;;;;;;;8.40;2.13;;;;;;;;;;10600996;27;20359;-59
2024/04/04 12:47:28;;;;;;;2.75;1.88;;;;;;;;;;10588323;27;20105;-59
2024/04/04 12:52:28;;;;;;;8.10;1.88;;;;;;;;;;10586166;28;20074;-60
2024/04/04 12:57:29;;;;;;;4.22;2.13;;;;;;;;;;10595848;27;20060;-59
2024/04/04 13:02:30;;;;;;;5.07;2.05;;;;;;;;;;10601781;27;20038;-59
2024/04/04 13:07:31;;;;;;;2.28;1.83;;;;;;;;;;10594749;27;20026;-59
2024/04/04 13:12:33;;;;;;;6.40;2.05;;;;;;;;;;10578561;27;20635;-59
2024/04/04 13:17:33;;;;;;;5.68;2.05;;;;;;;;;;10573462;28;20049;-59
2024/04/04 13:22:34;;;;;;;6.63;2.15;;;;;;;;;;10545929;28;20050;-59
2024/04/04 13:27:34;;;;;;;5.28;2.35;;;;;;;;;;10558324;28;20169;-59
2024/04/04 13:32:35;;;;;;;13.18;2.40;;;;;;;;;;10536105;28;20020;-59
2024/04/04 13:37:36;;;;;;;75.97;6.85;;;;;;;;;;10561109;28;20360;-60
2024/04/04 13:42:38;;;;;;;28.17;3.05;;;;;;;;;;10548777;28;20023;-60
2024/04/04 13:47:39;;;;;;;11.30;2.75;;;;;;;;;;10547600;28;20248;-61
2024/04/04 13:52:39;;;;;;;26.08;2.97;;;;;;;;;;10548466;28;20058;-61
2024/04/04 13:57:40;;;;;;;15.13;3.95;;;;;;;;;;10547652;28;20024;-61
2024/04/04 14:02:41;;;;;;;12.38;2.55;;;;;;;;;;10534731;28;20032;-62
2024/04/04 14:07:41;;;;;;;13.18;3.15;;;;;;;;;;10542437;28;20051;-61
2024/04/04 14:12:42;;;;;;;9.85;2.47;;;;;;;;;;10558701;28;20064;-61
2024/04/04 14:17:42;;;;;;;5.97;2.05;;;;;;;;;;10565547;28;20024;-61
2024/04/04 14:22:44;;;;;;;6.38;2.58;;;;;;;;;;10544023;28;20020;-61
2024/04/04 14:27:44;;;;;;;10.10;2.00;;;;;;;;;;10551754;28;20273;-61
2024/04/04 14:32:45;;;;;;;3.67;2.10;;;;;;;;;;10570779;28;20465;-61
2024/04/04 14:37:45;;;;;;;3.35;2.20;;;;;;;;;;10567717;28;20478;-61
2024/04/04 14:42:47;;;;;;;3.92;2.03;;;;;;;;;;10545563;28;20076;-61
2024/04/04 14:47:48;;;;;;;5.72;2.10;;;;;;;;;;10545111;28;20577;-62
2024/04/04 14:52:48;;;;;;;7.93;2.25;;;;;;;;;;10558241;28;20080;-61
2024/04/04 14:57:49;;;;;;;11.05;1.98;;;;;;;;;;10545663;28;20028;-63
2024/04/04 15:02:51;;;;;;;4.63;2.08;;;;;;;;;;10545421;28;20028;-61
2024/04/04 15:07:51;;;;;;;4.25;2.05;;;;;;;;;;10544044;28;20047;-61
2024/04/04 15:12:52;;;;;;;4.60;1.90;;;;;;;;;;10544213;28;20039;-60
2024/04/04 15:17:53;;;;;;;8.90;2.13;;;;;;;;;;10545716;28;20024;-61
2024/04/04 15:22:53;;;;;;;5.43;1.75;;;;;;;;;;10546990;28;20498;-61
2024/04/04 15:27:54;;;;;;;8.75;1.80;;;;;;;;;;10543936;28;20035;-61
2024/04/04 15:32:54;;;;;;;5.88;2.00;;;;;;;;;;10547755;28;20024;-61
2024/04/04 15:37:55;;;;;;;4.15;1.70;;;;;;;;;;10541744;28;20208;-60
2024/04/04 15:42:56;;;;;;;5.35;1.98;;;;;;;;;;10555706;28;20023;-61
2024/04/04 15:47:57;;;;;;;2.45;1.88;;;;;;;;;;10535094;28;20032;-61
2024/04/04 15:53:00;;;;;;;5.70;2.55;;;;;;;;;;10564682;28;20043;-61
2024/04/04 15:58:00;;;;;;;5.40;2.55;;;;;;;;;;10567195;28;20024;-61
2024/04/04 16:03:01;;;;;;;3.53;1.85;;;;;;;;;;10563550;28;20040;-61
2024/04/04 16:08:01;;;;;;;6.22;1.80;;;;;;;;;;10549426;28;20036;-61
2024/04/04 16:13:03;;;;;;;3.78;2.08;;;;;;;;;;10537430;28;20031;-62
2024/04/04 16:18:04;;;;;;;6.43;2.38;;;;;;;;;;10544104;28;20027;-61
2024/04/04 16:23:05;;;;;;;2.67;1.65;;;;;;;;;;10552804;28;20024;-61
2024/04/04 16:28:05;;;;;;;5.97;1.67;;;;;;;;;;10555254;28;20020;-60
2024/04/04 16:33:06;;;;;;;4.18;2.20;;;;;;;;;;10543736;28;20034;-61
2024/04/04 16:38:07;;;;;;;2.95;1.55;;;;;;;;;;10561473;28;20032;-61
2024/04/04 16:43:11;;;;;;;1.77;1.50;;;;;;;;;;10558060;28;20024;-61
2024/04/04 16:48:12;;;;;;;3.10;1.80;;;;;;;;;;10563810;28;20027;-61
2024/04/04 16:53:12;;;;;;;4.03;1.95;;;;;;;;;;10559209;28;20032;-61
2024/04/04 16:58:13;;;;;;;2.95;1.90;;;;;;;;;;10562622;28;20050;-61
2024/04/04 17:03:13;;;;;;;4.43;2.00;;;;;;;;;;10559894;27;20016;-61
2024/04/04 17:08:14;;;;;;;14.45;2.63;;;;;;;;;;10564177;28;20069;-61
2024/04/04 17:13:14;;;;;;;9.55;1.92;;;;;;;;;;10550504;28;20047;-60
2024/04/04 17:18:16;;;;;;;8.23;1.83;;;;;;;;;;10562124;27;20028;-60
2024/04/04 17:23:17;;;;;;;3.95;2.15;;;;;;;;;;10554328;27;20023;-61
2024/04/04 17:28:18;;;;;;;2.03;1.80;;;;;;;;;;10556075;28;20024;-61
2024/04/04 17:33:18;;;;;;;7.72;2.00;;;;;;;;;;10573263;28;20036;-61
2024/04/04 17:38:19;;;;;;;6.35;2.10;;;;;;;;;;10581003;27;20031;-61
2024/04/04 17:43:20;;;;;;;4.03;1.85;;;;;;;;;;10572724;28;20023;-61
2024/04/04 17:48:21;;;;;;;3.08;1.70;;;;;;;;;;10551938;28;20111;-61
2024/04/04 17:53:21;;;;;;;4.10;1.58;;;;;;;;;;10559587;28;20406;-61
2024/04/04 17:58:22;;;;;;;4.70;1.70;;;;;;;;;;10572308;27;20390;-61
2024/04/04 18:03:22;;;;;;;4.47;1.80;;;;;;;;;;10552319;28;20020;-61
2024/04/04 18:08:23;;;;;;;3.00;1.90;;;;;;;;;;10554864;28;20113;-61
2024/04/04 18:13:23;;;;;;;5.93;1.90;;;;;;;;;;10559026;28;20050;-61
2024/04/04 18:18:24;;;;;;;3.25;1.80;;;;;;;;;;10570949;28;20273;-61
2024/04/04 18:23:25;;;;;;;5.40;1.45;;;;;;;;;;10560597;28;20056;-61
2024/04/04 18:28:25;;;;;;;8.43;2.13;;;;;;;;;;10544840;28;20038;-61
2024/04/04 18:33:26;;;;;;;3.88;1.85;;;;;;;;;;10542625;28;20024;-61
2024/04/04 18:38:26;;;;;;;5.15;1.63;;;;;;;;;;10536929;28;20028;-61
2024/04/04 18:43:27;;;;;;;3.00;1.88;;;;;;;;;;10546651;28;20016;-61
2024/04/04 18:48:28;;;;;;;4.40;2.03;;;;;;;;;;10549347;28;20526;-61
2024/04/04 18:53:29;;;;;;;3.40;1.95;;;;;;;;;;10566237;28;20028;-61
2024/04/04 18:58:30;;;;;;;3.70;1.80;;;;;;;;;;10549961;28;20027;-61
2024/04/04 19:03:33;;;;;;;3.83;2.10;;;;;;;;;;10570846;28;20043;-61
2024/04/04 19:08:34;;;;;;;2.35;1.83;;;;;;;;;;10556111;28;20043;-61
2024/04/04 19:13:34;;;;;;;6.50;1.77;;;;;;;;;;10545035;28;20362;-62
2024/04/04 19:18:35;;;;;;;2.50;1.80;;;;;;;;;;10558191;28;20474;-61
2024/04/04 19:23:36;;;;;;;5.63;1.95;;;;;;;;;;10556588;28;20493;-61
2024/04/04 19:28:38;;;;;;;8.65;1.90;;;;;;;;;;10556961;28;20089;-62
2024/04/04 19:33:40;;;;;;;7.18;2.13;;;;;;;;;;10557608;28;20023;-62
2024/04/04 19:38:40;;;;;;;2.05;1.60;;;;;;;;;;10541512;28;20047;-62
2024/04/04 19:43:41;;;;;;;2.20;1.90;;;;;;;;;;10539559;28;20389;-62
2024/04/04 19:48:41;;;;;;;3.72;1.85;;;;;;;;;;10553208;28;20416;-63
2024/04/04 19:53:42;;;;;;;4.03;1.95;;;;;;;;;;10537106;28;20015;-63
2024/04/04 19:58:43;;;;;;;3.90;1.98;;;;;;;;;;10550810;28;20036;-63
2024/04/04 20:03:43;;;;;;;9.90;2.42;;;;;;;;;;10548729;28;20031;-64
2024/04/04 20:08:44;;;;;;;6.10;2.03;;;;;;;;;;10546632;28;20096;-63
2024/04/04 20:13:44;;;;;;;12.15;2.17;;;;;;;;;;10551227;28;20060;-62
2024/04/04 20:18:45;;;;;;;2.63;1.80;;;;;;;;;;10560002;28;20032;-63
2024/04/04 20:23:45;;;;;;;5.40;2.13;;;;;;;;;;10577107;28;20483;-62
2024/04/04 20:28:46;;;;;;;4.00;2.30;;;;;;;;;;10577588;28;20478;-62
2024/04/04 20:33:47;;;;;;;8.75;2.90;;;;;;;;;;10564088;28;20520;-63
2024/04/04 20:38:47;;;;;;;6.53;2.53;;;;;;;;;;10557690;28;20391;-62
2024/04/04 20:43:48;;;;;;;4.63;2.22;;;;;;;;;;10560734;28;20028;-63
2024/04/04 20:48:48;;;;;;;7.70;2.67;;;;;;;;;;10554297;28;20455;-63
2024/04/04 20:53:49;;;;;;;5.30;2.83;;;;;;;;;;10550552;28;20077;-63
2024/04/04 20:58:50;;;;;;;5.93;2.83;;;;;;;;;;10556420;28;20050;-63
2024/04/04 21:03:50;;;;;;;5.13;2.40;;;;;;;;;;10572913;28;20073;-62
2024/04/04 21:08:51;;;;;;;5.60;2.17;;;;;;;;;;10569807;28;20182;-63
2024/04/04 21:13:51;;;;;;;3.80;2.15;;;;;;;;;;10552529;28;20140;-62
2024/04/04 21:18:52;;;;;;;5.35;2.25;;;;;;;;;;10557711;28;20031;-62
2024/04/04 21:23:52;;;;;;;5.40;2.38;;;;;;;;;;10552683;28;20023;-63
2024/04/04 21:28:53;;;;;;;13.93;2.72;;;;;;;;;;10560937;28;20019;-63
2024/04/04 21:33:53;;;;;;;5.80;2.00;;;;;;;;;;10552033;27;20027;-63
2024/04/04 21:38:54;;;;;;;5.55;2.30;;;;;;;;;;10567975;28;20068;-63
2024/04/04 21:43:55;;;;;;;4.28;2.42;;;;;;;;;;10548982;28;20119;-63
2024/04/04 21:48:56;;;;;;;4.68;2.05;;;;;;;;;;10557939;28;20051;-63
2024/04/04 21:53:56;;;;;;;4.50;1.95;;;;;;;;;;10558713;28;20019;-63
2024/04/04 21:58:57;;;;;;;6.28;1.98;;;;;;;;;;10564895;28;20062;-63
2024/04/04 22:03:57;;;;;;;17.75;2.75;;;;;;;;;;10556828;28;20467;-63
2024/04/04 22:08:58;;;;;;;2.97;1.90;;;;;;;;;;10553602;28;20048;-63
2024/04/04 22:13:59;;;;;;;2.90;1.90;;;;;;;;;;10552524;28;20093;-64
2024/04/04 22:18:59;;;;;;;4.72;1.88;;;;;;;;;;10558017;28;21147;-63
2024/04/04 22:24:00;;;;;;;8.23;2.05;;;;;;;;;;10551901;28;20039;-63
2024/04/04 22:29:01;;;;;;;3.55;2.20;;;;;;;;;;10566128;28;20054;-63
2024/04/04 22:34:04;;;;;;;4.30;2.35;;;;;;;;;;10557942;28;20444;-63
2024/04/04 22:39:05;;;;;;;4.50;1.85;;;;;;;;;;10558461;27;20417;-62
2024/04/04 22:44:06;;;;;;;7.20;2.47;;;;;;;;;;10541149;28;20034;-63
2024/04/04 22:49:06;;;;;;;4.57;2.00;;;;;;;;;;10543924;28;20040;-63
2024/04/04 22:54:07;;;;;;;7.47;2.20;;;;;;;;;;10569770;28;20019;-63
2024/04/04 22:59:08;;;;;;;3.28;1.90;;;;;;;;;;10551715;28;20032;-66
2024/04/04 23:04:08;;;;;;;3.63;2.08;;;;;;;;;;10554612;28;20027;-63
2024/04/04 23:09:09;;;;;;;7.30;2.05;;;;;;;;;;10555697;27;20042;-64
2024/04/04 23:14:10;;;;;;;4.70;2.67;;;;;;;;;;10552778;28;20028;-63
2024/04/04 23:19:12;;;;;;;15.50;2.45;;;;;;;;;;10565386;28;20039;-63
2024/04/04 23:24:13;;;;;;;3.30;2.15;;;;;;;;;;10550827;28;20465;-64
2024/04/04 23:29:13;;;;;;;4.47;2.15;;;;;;;;;;10553112;28;20496;-64
2024/04/04 23:34:14;;;;;;;10.43;1.90;;;;;;;;;;10559026;28;20027;-64
2024/04/04 23:39:14;;;;;;;4.50;2.13;;;;;;;;;;10564564;28;20023;-64
2024/04/04 23:44:15;;;;;;;6.57;2.15;;;;;;;;;;10548194;28;20016;-63
2024/04/04 23:49:16;;;;;;;3.20;1.92;;;;;;;;;;10557398;28;20031;-64
2024/04/04 23:54:16;;;;;;;2.83;2.00;;;;;;;;;;10545338;28;20406;-63
2024/04/04 23:59:17;;;;;;;4.95;2.85;;;;;;;;;;10549845;28;20040;-63
